sensor_id;sensor_type;location;lat;lon;timestamp;P1;durP1;ratioP1;P2;durP2;ratioP2
11398;SDS011;5755;48.116;11.608;2024-01-10T00:00:17;40.27;;;20.60;;
11398;SDS011;5755;48.116;11.608;2024-01-10T00:02:44;36.90;;;19.77;;
11398;SDS011;5755;48.116;11.608;2024-01-10T00:05:11;37.60;;;19.73;;
11398;SDS011;5755;48.116;11.608;2024-01-10T00:07:38;35.27;;;19.10;;
11398;SDS011;5755;48.116;11.608;2024-01-10T00:10:05;35.23;;;19.17;;
11398;SDS011;5755;48.116;11.608;2024-01-10T00:12:34;36.30;;;18.53;;
11398;SDS011;5755;48.116;11.608;2024-01-10T00:15:02;34.87;;;17.30;;
11398;SDS011;5755;48.116;11.608;2024-01-10T00:17:29;33.60;;;18.43;;
11398;SDS011;5755;48.116;11.608;2024-01-10T00:19:56;34.80;;;18.97;;
11398;SDS011;5755;48.116;11.608;2024-01-10T00:22:23;31.97;;;17.00;;
11398;SDS011;5755;48.116;11.608;2024-01-10T00:24:50;35.10;;;17.60;;
11398;SDS011;5755;48.116;11.608;2024-01-10T00:27:16;34.50;;;18.13;;
11398;SDS011;5755;48.116;11.608;2024-01-10T00:29:44;34.87;;;17.87;;
11398;SDS011;5755;48.116;11.608;2024-01-10T00:32:11;35.57;;;18.43;;
11398;SDS011;5755;48.116;11.608;2024-01-10T00:34:38;37.17;;;18.77;;
11398;SDS011;5755;48.116;11.608;2024-01-10T00:37:05;35.10;;;18.27;;
11398;SDS011;5755;48.116;11.608;2024-01-10T00:39:32;36.60;;;17.93;;
11398;SDS011;5755;48.116;11.608;2024-01-10T00:41:58;35.20;;;18.10;;
11398;SDS011;5755;48.116;11.608;2024-01-10T00:44:25;33.20;;;18.20;;
11398;SDS011;5755;48.116;11.608;2024-01-10T00:46:53;32.87;;;17.73;;
11398;SDS011;5755;48.116;11.608;2024-01-10T00:49:20;35.27;;;18.03;;
11398;SDS011;5755;48.116;11.608;2024-01-10T00:51:47;34.90;;;18.60;;
11398;SDS011;5755;48.116;11.608;2024-01-10T00:54:14;32.47;;;17.67;;
11398;SDS011;5755;48.116;11.608;2024-01-10T00:56:48;34.20;;;17.60;;
11398;SDS011;5755;48.116;11.608;2024-01-10T00:59:15;33.80;;;17.60;;
11398;SDS011;5755;48.116;11.608;2024-01-10T01:01:42;35.70;;;19.03;;
11398;SDS011;5755;48.116;11.608;2024-01-10T01:04:10;32.17;;;17.40;;
11398;SDS011;5755;48.116;11.608;2024-01-10T01:06:37;33.37;;;17.93;;
11398;SDS011;5755;48.116;11.608;2024-01-10T01:09:04;35.40;;;18.43;;
11398;SDS011;5755;48.116;11.608;2024-01-10T01:11:30;35.67;;;18.67;;
11398;SDS011;5755;48.116;11.608;2024-01-10T01:13:57;40.97;;;18.33;;
11398;SDS011;5755;48.116;11.608;2024-01-10T01:16:24;33.97;;;17.53;;
11398;SDS011;5755;48.116;11.608;2024-01-10T01:18:51;34.87;;;17.50;;
11398;SDS011;5755;48.116;11.608;2024-01-10T01:21:19;39.93;;;18.43;;
11398;SDS011;5755;48.116;11.608;2024-01-10T01:23:46;35.07;;;17.90;;
11398;SDS011;5755;48.116;11.608;2024-01-10T01:26:12;36.63;;;18.83;;
11398;SDS011;5755;48.116;11.608;2024-01-10T01:28:39;41.10;;;19.60;;
11398;SDS011;5755;48.116;11.608;2024-01-10T01:31:06;36.57;;;18.33;;
11398;SDS011;5755;48.116;11.608;2024-01-10T01:33:33;34.23;;;18.53;;
11398;SDS011;5755;48.116;11.608;2024-01-10T01:36:00;37.67;;;18.87;;
11398;SDS011;5755;48.116;11.608;2024-01-10T01:38:28;36.97;;;17.27;;
11398;SDS011;5755;48.116;11.608;2024-01-10T01:40:55;37.77;;;18.20;;
11398;SDS011;5755;48.116;11.608;2024-01-10T01:43:22;38.13;;;18.03;;
11398;SDS011;5755;48.116;11.608;2024-01-10T01:45:50;32.00;;;18.17;;
11398;SDS011;5755;48.116;11.608;2024-01-10T01:48:18;35.13;;;18.00;;
11398;SDS011;5755;48.116;11.608;2024-01-10T01:50:54;40.23;;;19.33;;
11398;SDS011;5755;48.116;11.608;2024-01-10T01:53:23;36.30;;;18.60;;
11398;SDS011;5755;48.116;11.608;2024-01-10T01:55:55;35.70;;;17.37;;
11398;SDS011;5755;48.116;11.608;2024-01-10T01:58:22;35.67;;;18.37;;
11398;SDS011;5755;48.116;11.608;2024-01-10T02:00:49;37.73;;;18.17;;
11398;SDS011;5755;48.116;11.608;2024-01-10T02:03:17;37.20;;;18.57;;
11398;SDS011;5755;48.116;11.608;2024-01-10T02:05:44;40.87;;;19.70;;
11398;SDS011;5755;48.116;11.608;2024-01-10T02:08:12;35.50;;;18.27;;
11398;SDS011;5755;48.116;11.608;2024-01-10T02:10:39;36.37;;;18.73;;
11398;SDS011;5755;48.116;11.608;2024-01-10T02:13:07;36.40;;;18.37;;
11398;SDS011;5755;48.116;11.608;2024-01-10T02:15:36;39.73;;;19.30;;
11398;SDS011;5755;48.116;11.608;2024-01-10T02:18:04;41.13;;;18.93;;
11398;SDS011;5755;48.116;11.608;2024-01-10T02:20:31;39.30;;;18.70;;
11398;SDS011;5755;48.116;11.608;2024-01-10T02:22:58;38.53;;;18.93;;
11398;SDS011;5755;48.116;11.608;2024-01-10T02:25:26;40.73;;;19.00;;
11398;SDS011;5755;48.116;11.608;2024-01-10T02:27:53;38.57;;;19.53;;
11398;SDS011;5755;48.116;11.608;2024-01-10T02:30:19;37.37;;;19.03;;
11398;SDS011;5755;48.116;11.608;2024-01-10T02:32:46;38.53;;;19.07;;
11398;SDS011;5755;48.116;11.608;2024-01-10T02:35:13;37.63;;;18.40;;
11398;SDS011;5755;48.116;11.608;2024-01-10T02:37:40;36.97;;;18.60;;
11398;SDS011;5755;48.116;11.608;2024-01-10T02:40:07;32.63;;;17.53;;
11398;SDS011;5755;48.116;11.608;2024-01-10T02:42:36;40.83;;;19.23;;
11398;SDS011;5755;48.116;11.608;2024-01-10T02:45:03;38.53;;;18.57;;
11398;SDS011;5755;48.116;11.608;2024-01-10T02:47:30;35.80;;;18.27;;
11398;SDS011;5755;48.116;11.608;2024-01-10T02:50:02;38.30;;;18.43;;
11398;SDS011;5755;48.116;11.608;2024-01-10T02:52:29;36.87;;;19.13;;
11398;SDS011;5755;48.116;11.608;2024-01-10T02:54:55;41.43;;;18.90;;
11398;SDS011;5755;48.116;11.608;2024-01-10T02:57:22;36.80;;;19.13;;
11398;SDS011;5755;48.116;11.608;2024-01-10T02:59:53;35.97;;;18.60;;
11398;SDS011;5755;48.116;11.608;2024-01-10T03:02:20;36.13;;;17.97;;
11398;SDS011;5755;48.116;11.608;2024-01-10T03:04:48;39.30;;;19.10;;
11398;SDS011;5755;48.116;11.608;2024-01-10T03:07:15;37.23;;;18.60;;
11398;SDS011;5755;48.116;11.608;2024-01-10T03:09:42;38.67;;;19.27;;
11398;SDS011;5755;48.116;11.608;2024-01-10T03:12:09;39.90;;;18.83;;
11398;SDS011;5755;48.116;11.608;2024-01-10T03:14:37;39.10;;;18.90;;
11398;SDS011;5755;48.116;11.608;2024-01-10T03:17:05;39.30;;;18.87;;
11398;SDS011;5755;48.116;11.608;2024-01-10T03:19:32;38.27;;;19.30;;
11398;SDS011;5755;48.116;11.608;2024-01-10T03:21:59;39.80;;;18.93;;
11398;SDS011;5755;48.116;11.608;2024-01-10T03:24:26;43.80;;;19.10;;
11398;SDS011;5755;48.116;11.608;2024-01-10T03:26:52;37.13;;;18.53;;
11398;SDS011;5755;48.116;11.608;2024-01-10T03:29:19;38.43;;;17.97;;
11398;SDS011;5755;48.116;11.608;2024-01-10T03:31:46;35.93;;;17.87;;
11398;SDS011;5755;48.116;11.608;2024-01-10T03:34:14;37.13;;;18.40;;
11398;SDS011;5755;48.116;11.608;2024-01-10T03:36:43;37.23;;;17.77;;
11398;SDS011;5755;48.116;11.608;2024-01-10T03:39:09;35.77;;;18.10;;
11398;SDS011;5755;48.116;11.608;2024-01-10T03:41:36;39.17;;;18.60;;
11398;SDS011;5755;48.116;11.608;2024-01-10T03:44:03;39.17;;;19.27;;
11398;SDS011;5755;48.116;11.608;2024-01-10T03:46:30;36.93;;;18.63;;
11398;SDS011;5755;48.116;11.608;2024-01-10T03:48:57;38.87;;;18.80;;
11398;SDS011;5755;48.116;11.608;2024-01-10T03:51:25;38.17;;;18.90;;
11398;SDS011;5755;48.116;11.608;2024-01-10T03:53:52;37.77;;;18.33;;
11398;SDS011;5755;48.116;11.608;2024-01-10T03:56:20;37.53;;;19.37;;
11398;SDS011;5755;48.116;11.608;2024-01-10T03:58:47;39.27;;;18.70;;
11398;SDS011;5755;48.116;11.608;2024-01-10T04:01:14;37.83;;;19.33;;
11398;SDS011;5755;48.116;11.608;2024-01-10T04:03:41;36.77;;;18.67;;
11398;SDS011;5755;48.116;11.608;2024-01-10T04:06:09;36.63;;;18.30;;
11398;SDS011;5755;48.116;11.608;2024-01-10T04:08:37;43.47;;;19.53;;
11398;SDS011;5755;48.116;11.608;2024-01-10T04:11:04;36.63;;;18.53;;
11398;SDS011;5755;48.116;11.608;2024-01-10T04:13:31;40.07;;;19.23;;
11398;SDS011;5755;48.116;11.608;2024-01-10T04:15:57;40.57;;;20.00;;
11398;SDS011;5755;48.116;11.608;2024-01-10T04:18:24;38.90;;;18.70;;
11398;SDS011;5755;48.116;11.608;2024-01-10T04:20:51;39.97;;;19.53;;
11398;SDS011;5755;48.116;11.608;2024-01-10T04:23:18;40.07;;;19.00;;
11398;SDS011;5755;48.116;11.608;2024-01-10T04:25:46;40.27;;;19.27;;
11398;SDS011;5755;48.116;11.608;2024-01-10T04:28:13;35.40;;;18.03;;
11398;SDS011;5755;48.116;11.608;2024-01-10T04:30:40;39.10;;;18.40;;
11398;SDS011;5755;48.116;11.608;2024-01-10T04:33:06;38.80;;;18.40;;
11398;SDS011;5755;48.116;11.608;2024-01-10T04:35:33;39.73;;;19.53;;
11398;SDS011;5755;48.116;11.608;2024-01-10T04:38:00;36.03;;;18.50;;
11398;SDS011;5755;48.116;11.608;2024-01-10T04:40:27;38.77;;;19.13;;
11398;SDS011;5755;48.116;11.608;2024-01-10T04:42:56;33.50;;;17.00;;
11398;SDS011;5755;48.116;11.608;2024-01-10T04:45:22;37.70;;;17.67;;
11398;SDS011;5755;48.116;11.608;2024-01-10T04:47:49;37.10;;;17.97;;
11398;SDS011;5755;48.116;11.608;2024-01-10T04:50:16;36.00;;;17.83;;
11398;SDS011;5755;48.116;11.608;2024-01-10T04:52:43;38.73;;;17.87;;
11398;SDS011;5755;48.116;11.608;2024-01-10T04:55:10;38.10;;;17.70;;
11398;SDS011;5755;48.116;11.608;2024-01-10T04:57:36;34.07;;;17.27;;
11398;SDS011;5755;48.116;11.608;2024-01-10T05:00:05;34.83;;;17.27;;
11398;SDS011;5755;48.116;11.608;2024-01-10T05:02:33;34.90;;;16.50;;
11398;SDS011;5755;48.116;11.608;2024-01-10T05:05:00;34.00;;;18.07;;
11398;SDS011;5755;48.116;11.608;2024-01-10T05:07:28;35.57;;;17.27;;
11398;SDS011;5755;48.116;11.608;2024-01-10T05:09:55;33.57;;;16.73;;
11398;SDS011;5755;48.116;11.608;2024-01-10T05:12:22;36.97;;;17.77;;
11398;SDS011;5755;48.116;11.608;2024-01-10T05:14:49;36.03;;;17.60;;
11398;SDS011;5755;48.116;11.608;2024-01-10T05:17:18;34.70;;;16.17;;
11398;SDS011;5755;48.116;11.608;2024-01-10T05:19:45;39.93;;;17.47;;
11398;SDS011;5755;48.116;11.608;2024-01-10T05:22:19;35.97;;;17.67;;
11398;SDS011;5755;48.116;11.608;2024-01-10T05:24:47;38.70;;;18.13;;
11398;SDS011;5755;48.116;11.608;2024-01-10T05:27:14;40.07;;;18.83;;
11398;SDS011;5755;48.116;11.608;2024-01-10T05:29:41;40.03;;;19.33;;
11398;SDS011;5755;48.116;11.608;2024-01-10T05:32:07;39.50;;;18.80;;
11398;SDS011;5755;48.116;11.608;2024-01-10T05:34:36;41.83;;;19.60;;
11398;SDS011;5755;48.116;11.608;2024-01-10T05:37:03;41.40;;;18.83;;
11398;SDS011;5755;48.116;11.608;2024-01-10T05:39:30;41.73;;;19.77;;
11398;SDS011;5755;48.116;11.608;2024-01-10T05:41:56;42.17;;;19.23;;
11398;SDS011;5755;48.116;11.608;2024-01-10T05:44:23;41.87;;;19.67;;
11398;SDS011;5755;48.116;11.608;2024-01-10T05:46:50;41.87;;;19.90;;
11398;SDS011;5755;48.116;11.608;2024-01-10T05:49:17;38.97;;;18.53;;
11398;SDS011;5755;48.116;11.608;2024-01-10T05:51:45;40.83;;;19.83;;
11398;SDS011;5755;48.116;11.608;2024-01-10T05:54:12;43.63;;;19.10;;
11398;SDS011;5755;48.116;11.608;2024-01-10T05:56:39;38.70;;;18.33;;
11398;SDS011;5755;48.116;11.608;2024-01-10T05:59:05;41.70;;;18.67;;
11398;SDS011;5755;48.116;11.608;2024-01-10T06:01:32;41.43;;;19.27;;
11398;SDS011;5755;48.116;11.608;2024-01-10T06:03:59;43.20;;;19.57;;
11398;SDS011;5755;48.116;11.608;2024-01-10T06:06:26;41.23;;;19.37;;
11398;SDS011;5755;48.116;11.608;2024-01-10T06:08:54;45.03;;;19.40;;
11398;SDS011;5755;48.116;11.608;2024-01-10T06:11:21;45.93;;;19.83;;
11398;SDS011;5755;48.116;11.608;2024-01-10T06:13:48;42.63;;;19.33;;
11398;SDS011;5755;48.116;11.608;2024-01-10T06:16:15;44.70;;;18.60;;
11398;SDS011;5755;48.116;11.608;2024-01-10T06:18:41;43.13;;;18.80;;
11398;SDS011;5755;48.116;11.608;2024-01-10T06:21:08;45.23;;;19.17;;
11398;SDS011;5755;48.116;11.608;2024-01-10T06:23:35;39.07;;;18.97;;
11398;SDS011;5755;48.116;11.608;2024-01-10T06:26:04;47.50;;;19.13;;
11398;SDS011;5755;48.116;11.608;2024-01-10T06:28:31;45.73;;;19.07;;
11398;SDS011;5755;48.116;11.608;2024-01-10T06:30:58;41.27;;;19.20;;
11398;SDS011;5755;48.116;11.608;2024-01-10T06:33:25;44.13;;;19.03;;
11398;SDS011;5755;48.116;11.608;2024-01-10T06:35:51;43.40;;;18.57;;
11398;SDS011;5755;48.116;11.608;2024-01-10T06:38:19;41.90;;;19.57;;
11398;SDS011;5755;48.116;11.608;2024-01-10T06:40:47;41.30;;;18.83;;
11398;SDS011;5755;48.116;11.608;2024-01-10T06:43:18;40.10;;;20.07;;
11398;SDS011;5755;48.116;11.608;2024-01-10T06:45:45;43.13;;;19.77;;
11398;SDS011;5755;48.116;11.608;2024-01-10T06:48:13;44.27;;;20.20;;
11398;SDS011;5755;48.116;11.608;2024-01-10T06:50:39;42.63;;;18.90;;
11398;SDS011;5755;48.116;11.608;2024-01-10T06:53:16;43.27;;;18.60;;
11398;SDS011;5755;48.116;11.608;2024-01-10T06:55:45;43.13;;;19.47;;
11398;SDS011;5755;48.116;11.608;2024-01-10T06:58:12;44.63;;;19.43;;
11398;SDS011;5755;48.116;11.608;2024-01-10T07:00:40;43.00;;;19.10;;
11398;SDS011;5755;48.116;11.608;2024-01-10T07:03:08;41.73;;;18.97;;
11398;SDS011;5755;48.116;11.608;2024-01-10T07:05:36;44.83;;;19.73;;
11398;SDS011;5755;48.116;11.608;2024-01-10T07:08:02;40.87;;;17.97;;
11398;SDS011;5755;48.116;11.608;2024-01-10T07:10:30;41.07;;;19.03;;
11398;SDS011;5755;48.116;11.608;2024-01-10T07:12:56;40.63;;;18.63;;
11398;SDS011;5755;48.116;11.608;2024-01-10T07:15:32;43.17;;;19.10;;
11398;SDS011;5755;48.116;11.608;2024-01-10T07:18:00;43.87;;;19.30;;
11398;SDS011;5755;48.116;11.608;2024-01-10T07:20:27;43.03;;;19.10;;
11398;SDS011;5755;48.116;11.608;2024-01-10T07:22:54;43.07;;;19.23;;
11398;SDS011;5755;48.116;11.608;2024-01-10T07:25:20;44.07;;;19.60;;
11398;SDS011;5755;48.116;11.608;2024-01-10T07:27:53;45.47;;;19.27;;
11398;SDS011;5755;48.116;11.608;2024-01-10T07:30:24;44.73;;;20.17;;
11398;SDS011;5755;48.116;11.608;2024-01-10T07:32:54;42.10;;;19.87;;
11398;SDS011;5755;48.116;11.608;2024-01-10T07:35:31;42.07;;;20.13;;
11398;SDS011;5755;48.116;11.608;2024-01-10T07:37:58;42.13;;;19.90;;
11398;SDS011;5755;48.116;11.608;2024-01-10T07:40:25;43.87;;;20.23;;
11398;SDS011;5755;48.116;11.608;2024-01-10T07:42:52;47.73;;;20.27;;
11398;SDS011;5755;48.116;11.608;2024-01-10T07:45:18;44.30;;;20.60;;
11398;SDS011;5755;48.116;11.608;2024-01-10T07:47:45;46.73;;;20.90;;
11398;SDS011;5755;48.116;11.608;2024-01-10T07:50:12;45.90;;;19.93;;
11398;SDS011;5755;48.116;11.608;2024-01-10T07:52:42;43.83;;;20.17;;
11398;SDS011;5755;48.116;11.608;2024-01-10T07:55:11;42.43;;;19.93;;
11398;SDS011;5755;48.116;11.608;2024-01-10T07:57:38;46.27;;;21.30;;
11398;SDS011;5755;48.116;11.608;2024-01-10T08:00:07;43.73;;;20.53;;
11398;SDS011;5755;48.116;11.608;2024-01-10T08:02:35;51.33;;;21.00;;
11398;SDS011;5755;48.116;11.608;2024-01-10T08:05:02;45.73;;;21.13;;
11398;SDS011;5755;48.116;11.608;2024-01-10T08:07:41;39.90;;;20.73;;
11398;SDS011;5755;48.116;11.608;2024-01-10T08:10:08;47.70;;;20.47;;
11398;SDS011;5755;48.116;11.608;2024-01-10T08:12:35;47.33;;;21.87;;
11398;SDS011;5755;48.116;11.608;2024-01-10T08:15:03;48.73;;;22.20;;
11398;SDS011;5755;48.116;11.608;2024-01-10T08:17:31;47.50;;;21.27;;
11398;SDS011;5755;48.116;11.608;2024-01-10T08:19:58;45.23;;;21.17;;
11398;SDS011;5755;48.116;11.608;2024-01-10T08:22:25;43.97;;;22.13;;
11398;SDS011;5755;48.116;11.608;2024-01-10T08:24:53;52.60;;;22.23;;
11398;SDS011;5755;48.116;11.608;2024-01-10T08:27:21;51.23;;;23.10;;
11398;SDS011;5755;48.116;11.608;2024-01-10T08:29:47;49.10;;;22.30;;
11398;SDS011;5755;48.116;11.608;2024-01-10T08:32:17;47.27;;;22.63;;
11398;SDS011;5755;48.116;11.608;2024-01-10T08:34:46;47.43;;;22.27;;
11398;SDS011;5755;48.116;11.608;2024-01-10T08:37:15;43.60;;;21.77;;
11398;SDS011;5755;48.116;11.608;2024-01-10T08:39:42;49.37;;;22.57;;
11398;SDS011;5755;48.116;11.608;2024-01-10T08:42:10;45.27;;;21.80;;
11398;SDS011;5755;48.116;11.608;2024-01-10T08:44:37;48.07;;;22.50;;
11398;SDS011;5755;48.116;11.608;2024-01-10T08:47:04;47.00;;;21.27;;
11398;SDS011;5755;48.116;11.608;2024-01-10T08:49:31;46.27;;;21.40;;
11398;SDS011;5755;48.116;11.608;2024-01-10T08:51:57;42.47;;;21.83;;
11398;SDS011;5755;48.116;11.608;2024-01-10T08:54:24;43.23;;;21.37;;
11398;SDS011;5755;48.116;11.608;2024-01-10T08:56:52;46.90;;;23.10;;
11398;SDS011;5755;48.116;11.608;2024-01-10T08:59:20;46.97;;;22.90;;
11398;SDS011;5755;48.116;11.608;2024-01-10T09:01:47;46.67;;;22.50;;
11398;SDS011;5755;48.116;11.608;2024-01-10T09:04:13;40.10;;;21.40;;
11398;SDS011;5755;48.116;11.608;2024-01-10T09:06:40;39.97;;;20.97;;
11398;SDS011;5755;48.116;11.608;2024-01-10T09:09:07;46.60;;;22.30;;
11398;SDS011;5755;48.116;11.608;2024-01-10T09:11:34;41.07;;;20.77;;
11398;SDS011;5755;48.116;11.608;2024-01-10T09:14:01;41.77;;;21.77;;
11398;SDS011;5755;48.116;11.608;2024-01-10T09:16:29;41.77;;;22.53;;
11398;SDS011;5755;48.116;11.608;2024-01-10T09:18:56;39.03;;;21.07;;
11398;SDS011;5755;48.116;11.608;2024-01-10T09:21:23;39.17;;;21.30;;
11398;SDS011;5755;48.116;11.608;2024-01-10T09:23:51;42.20;;;22.30;;
11398;SDS011;5755;48.116;11.608;2024-01-10T09:26:18;38.10;;;22.07;;
11398;SDS011;5755;48.116;11.608;2024-01-10T09:28:45;39.47;;;22.20;;
11398;SDS011;5755;48.116;11.608;2024-01-10T09:31:12;39.43;;;21.97;;
11398;SDS011;5755;48.116;11.608;2024-01-10T09:33:40;41.90;;;22.37;;
11398;SDS011;5755;48.116;11.608;2024-01-10T09:36:08;39.60;;;21.57;;
11398;SDS011;5755;48.116;11.608;2024-01-10T09:38:35;39.03;;;22.07;;
11398;SDS011;5755;48.116;11.608;2024-01-10T09:41:02;41.90;;;22.13;;
11398;SDS011;5755;48.116;11.608;2024-01-10T09:43:30;42.90;;;22.43;;
11398;SDS011;5755;48.116;11.608;2024-01-10T09:45:58;39.37;;;22.57;;
11398;SDS011;5755;48.116;11.608;2024-01-10T09:48:27;39.15;;;22.15;;
11398;SDS011;5755;48.116;11.608;2024-01-10T09:50:56;36.80;;;21.27;;
11398;SDS011;5755;48.116;11.608;2024-01-10T09:53:23;38.70;;;22.27;;
11398;SDS011;5755;48.116;11.608;2024-01-10T09:55:51;36.23;;;22.30;;
11398;SDS011;5755;48.116;11.608;2024-01-10T09:58:21;39.47;;;22.67;;
11398;SDS011;5755;48.116;11.608;2024-01-10T10:00:49;38.97;;;21.80;;
11398;SDS011;5755;48.116;11.608;2024-01-10T10:03:16;39.60;;;22.67;;
11398;SDS011;5755;48.116;11.608;2024-01-10T10:05:44;39.23;;;22.87;;
11398;SDS011;5755;48.116;11.608;2024-01-10T10:08:13;38.53;;;22.13;;
11398;SDS011;5755;48.116;11.608;2024-01-10T10:10:48;36.97;;;21.40;;
11398;SDS011;5755;48.116;11.608;2024-01-10T10:13:24;39.13;;;22.00;;
11398;SDS011;5755;48.116;11.608;2024-01-10T10:15:57;39.27;;;22.20;;
11398;SDS011;5755;48.116;11.608;2024-01-10T10:18:25;38.77;;;22.30;;
11398;SDS011;5755;48.116;11.608;2024-01-10T10:21:05;39.03;;;22.80;;
11398;SDS011;5755;48.116;11.608;2024-01-10T10:23:35;41.10;;;22.57;;
11398;SDS011;5755;48.116;11.608;2024-01-10T10:26:09;41.87;;;23.07;;
11398;SDS011;5755;48.116;11.608;2024-01-10T10:28:39;43.40;;;22.77;;
11398;SDS011;5755;48.116;11.608;2024-01-10T10:31:06;43.13;;;23.03;;
11398;SDS011;5755;48.116;11.608;2024-01-10T10:33:33;38.43;;;21.20;;
11398;SDS011;5755;48.116;11.608;2024-01-10T10:36:00;42.70;;;23.80;;
11398;SDS011;5755;48.116;11.608;2024-01-10T10:38:28;40.83;;;22.23;;
11398;SDS011;5755;48.116;11.608;2024-01-10T10:40:56;43.07;;;22.67;;
11398;SDS011;5755;48.116;11.608;2024-01-10T10:43:24;40.60;;;22.90;;
11398;SDS011;5755;48.116;11.608;2024-01-10T10:45:52;40.77;;;22.40;;
11398;SDS011;5755;48.116;11.608;2024-01-10T10:48:20;41.77;;;22.70;;
11398;SDS011;5755;48.116;11.608;2024-01-10T10:50:50;42.57;;;23.30;;
11398;SDS011;5755;48.116;11.608;2024-01-10T10:53:28;39.83;;;23.17;;
11398;SDS011;5755;48.116;11.608;2024-01-10T10:55:58;43.00;;;25.00;;
11398;SDS011;5755;48.116;11.608;2024-01-10T10:58:26;40.93;;;23.47;;
11398;SDS011;5755;48.116;11.608;2024-01-10T11:00:54;38.60;;;24.50;;
11398;SDS011;5755;48.116;11.608;2024-01-10T11:03:23;42.83;;;25.20;;
11398;SDS011;5755;48.116;11.608;2024-01-10T11:05:51;38.13;;;23.53;;
11398;SDS011;5755;48.116;11.608;2024-01-10T11:08:19;38.77;;;22.77;;
11398;SDS011;5755;48.116;11.608;2024-01-10T11:10:48;42.53;;;23.80;;
11398;SDS011;5755;48.116;11.608;2024-01-10T11:13:27;42.87;;;23.60;;
11398;SDS011;5755;48.116;11.608;2024-01-10T11:16:06;44.53;;;24.40;;
11398;SDS011;5755;48.116;11.608;2024-01-10T11:18:54;42.07;;;23.97;;
11398;SDS011;5755;48.116;11.608;2024-01-10T11:21:37;39.97;;;23.47;;
11398;SDS011;5755;48.116;11.608;2024-01-10T11:24:15;48.13;;;24.57;;
11398;SDS011;5755;48.116;11.608;2024-01-10T11:26:44;43.33;;;23.73;;
11398;SDS011;5755;48.116;11.608;2024-01-10T11:29:12;42.37;;;24.00;;
11398;SDS011;5755;48.116;11.608;2024-01-10T11:31:40;44.40;;;24.57;;
11398;SDS011;5755;48.116;11.608;2024-01-10T11:34:08;45.00;;;24.23;;
11398;SDS011;5755;48.116;11.608;2024-01-10T11:36:38;45.70;;;23.83;;
11398;SDS011;5755;48.116;11.608;2024-01-10T11:39:05;42.50;;;22.47;;
11398;SDS011;5755;48.116;11.608;2024-01-10T11:41:33;43.27;;;23.00;;
11398;SDS011;5755;48.116;11.608;2024-01-10T11:46:58;43.00;;;23.37;;
11398;SDS011;5755;48.116;11.608;2024-01-10T11:49:26;45.47;;;22.80;;
11398;SDS011;5755;48.116;11.608;2024-01-10T11:51:53;43.53;;;21.90;;
11398;SDS011;5755;48.116;11.608;2024-01-10T11:54:40;43.90;;;23.40;;
11398;SDS011;5755;48.116;11.608;2024-01-10T11:57:11;47.03;;;23.70;;
11398;SDS011;5755;48.116;11.608;2024-01-10T11:59:40;44.53;;;22.77;;
11398;SDS011;5755;48.116;11.608;2024-01-10T12:02:10;47.30;;;24.57;;
11398;SDS011;5755;48.116;11.608;2024-01-10T12:04:38;45.20;;;23.83;;
11398;SDS011;5755;48.116;11.608;2024-01-10T12:07:06;46.30;;;24.63;;
11398;SDS011;5755;48.116;11.608;2024-01-10T12:09:34;46.60;;;23.53;;
11398;SDS011;5755;48.116;11.608;2024-01-10T12:12:01;45.10;;;23.73;;
11398;SDS011;5755;48.116;11.608;2024-01-10T12:14:28;45.17;;;23.80;;
11398;SDS011;5755;48.116;11.608;2024-01-10T12:16:57;47.77;;;24.80;;
11398;SDS011;5755;48.116;11.608;2024-01-10T12:19:25;48.93;;;25.10;;
11398;SDS011;5755;48.116;11.608;2024-01-10T12:21:52;48.47;;;24.73;;
11398;SDS011;5755;48.116;11.608;2024-01-10T12:24:19;48.00;;;24.33;;
11398;SDS011;5755;48.116;11.608;2024-01-10T12:26:46;51.97;;;26.53;;
11398;SDS011;5755;48.116;11.608;2024-01-10T12:29:16;53.93;;;26.67;;
11398;SDS011;5755;48.116;11.608;2024-01-10T12:31:45;49.17;;;25.43;;
11398;SDS011;5755;48.116;11.608;2024-01-10T12:34:13;51.23;;;26.47;;
11398;SDS011;5755;48.116;11.608;2024-01-10T12:36:40;46.43;;;25.00;;
11398;SDS011;5755;48.116;11.608;2024-01-10T12:39:07;48.53;;;25.60;;
11398;SDS011;5755;48.116;11.608;2024-01-10T12:41:34;46.63;;;25.27;;
11398;SDS011;5755;48.116;11.608;2024-01-10T12:44:03;50.70;;;26.13;;
11398;SDS011;5755;48.116;11.608;2024-01-10T12:46:31;54.57;;;25.87;;
11398;SDS011;5755;48.116;11.608;2024-01-10T12:48:59;49.90;;;25.33;;
11398;SDS011;5755;48.116;11.608;2024-01-10T12:51:28;56.40;;;27.60;;
11398;SDS011;5755;48.116;11.608;2024-01-10T12:53:55;55.70;;;26.83;;
11398;SDS011;5755;48.116;11.608;2024-01-10T12:56:23;46.23;;;23.57;;
11398;SDS011;5755;48.116;11.608;2024-01-10T12:58:51;53.07;;;25.97;;
11398;SDS011;5755;48.116;11.608;2024-01-10T13:01:17;56.03;;;27.30;;
11398;SDS011;5755;48.116;11.608;2024-01-10T13:03:45;49.87;;;24.37;;
11398;SDS011;5755;48.116;11.608;2024-01-10T13:06:13;54.47;;;24.83;;
11398;SDS011;5755;48.116;11.608;2024-01-10T13:08:42;52.77;;;25.33;;
11398;SDS011;5755;48.116;11.608;2024-01-10T13:11:09;54.77;;;25.30;;
11398;SDS011;5755;48.116;11.608;2024-01-10T13:13:36;57.37;;;26.57;;
11398;SDS011;5755;48.116;11.608;2024-01-10T13:16:03;57.33;;;26.93;;
11398;SDS011;5755;48.116;11.608;2024-01-10T13:18:30;55.33;;;27.77;;
11398;SDS011;5755;48.116;11.608;2024-01-10T13:20:57;58.13;;;27.20;;
11398;SDS011;5755;48.116;11.608;2024-01-10T13:23:24;51.37;;;25.63;;
11398;SDS011;5755;48.116;11.608;2024-01-10T13:25:53;58.27;;;26.37;;
11398;SDS011;5755;48.116;11.608;2024-01-10T13:28:19;52.80;;;26.13;;
11398;SDS011;5755;48.116;11.608;2024-01-10T13:30:46;55.53;;;26.50;;
11398;SDS011;5755;48.116;11.608;2024-01-10T13:33:15;52.20;;;26.20;;
11398;SDS011;5755;48.116;11.608;2024-01-10T13:35:43;52.80;;;25.33;;
11398;SDS011;5755;48.116;11.608;2024-01-10T13:38:10;54.60;;;25.90;;
11398;SDS011;5755;48.116;11.608;2024-01-10T13:40:37;52.20;;;26.00;;
11398;SDS011;5755;48.116;11.608;2024-01-10T13:43:05;53.17;;;26.07;;
11398;SDS011;5755;48.116;11.608;2024-01-10T13:45:32;56.40;;;25.87;;
11398;SDS011;5755;48.116;11.608;2024-01-10T13:48:00;53.10;;;26.40;;
11398;SDS011;5755;48.116;11.608;2024-01-10T13:50:27;51.97;;;25.60;;
11398;SDS011;5755;48.116;11.608;2024-01-10T13:53:01;51.87;;;24.63;;
11398;SDS011;5755;48.116;11.608;2024-01-10T13:55:29;49.33;;;23.43;;
11398;SDS011;5755;48.116;11.608;2024-01-10T13:57:56;51.47;;;24.93;;
11398;SDS011;5755;48.116;11.608;2024-01-10T14:00:25;48.30;;;24.87;;
11398;SDS011;5755;48.116;11.608;2024-01-10T14:02:52;51.97;;;25.37;;
11398;SDS011;5755;48.116;11.608;2024-01-10T14:05:23;48.13;;;23.50;;
11398;SDS011;5755;48.116;11.608;2024-01-10T14:07:51;50.77;;;25.67;;
11398;SDS011;5755;48.116;11.608;2024-01-10T14:10:18;52.27;;;25.37;;
11398;SDS011;5755;48.116;11.608;2024-01-10T14:12:45;49.40;;;24.97;;
11398;SDS011;5755;48.116;11.608;2024-01-10T14:15:12;55.50;;;26.30;;
11398;SDS011;5755;48.116;11.608;2024-01-10T14:20:33;56.63;;;25.20;;
11398;SDS011;5755;48.116;11.608;2024-01-10T14:23:01;53.90;;;25.73;;
11398;SDS011;5755;48.116;11.608;2024-01-10T14:25:27;53.73;;;26.17;;
11398;SDS011;5755;48.116;11.608;2024-01-10T14:27:54;57.33;;;25.60;;
11398;SDS011;5755;48.116;11.608;2024-01-10T14:30:23;55.00;;;25.83;;